createdAt,value
2019-05-01T00:03:14.033Z,45.60
2019-05-01T00:08:17.267Z,44.47
2019-05-01T00:13:19.059Z,44.73
2019-05-01T00:18:23.083Z,42.80
2019-05-01T00:23:25.104Z,44.03
2019-05-01T00:28:26.909Z,44.17
2019-05-01T00:33:28.820Z,42.20
2019-05-01T00:38:30.753Z,45.03
2019-05-01T00:43:32.603Z,50.97
2019-05-01T00:48:34.499Z,51.30
2019-05-01T00:53:36.682Z,54.17
2019-05-01T00:59:01.041Z,53.03
2019-05-01T01:04:03.274Z,52.57
2019-05-01T01:09:06.196Z,56.17
2019-05-01T01:14:08.100Z,51.70
2019-05-01T01:19:14.295Z,50.00
2019-05-01T01:24:16.493Z,50.10
2019-05-01T01:29:21.474Z,51.67
2019-05-01T01:34:25.760Z,53.30
2019-05-01T01:39:27.671Z,49.80
2019-05-01T01:44:38.487Z,55.63
2019-05-01T01:49:40.374Z,50.63
2019-05-01T01:54:42.537Z,47.17
2019-05-01T01:59:44.944Z,46.10
2019-05-01T02:05:05.465Z,49.40
2019-05-01T02:10:07.930Z,50.10
2019-05-01T02:15:09.787Z,51.20
2019-05-01T02:20:12.475Z,54.40
2019-05-01T02:25:15.271Z,49.27
2019-05-01T02:30:19.008Z,43.83
2019-05-01T02:35:22.003Z,43.40
2019-05-01T02:40:48.060Z,37.90
2019-05-01T02:45:56.125Z,35.80
2019-05-01T02:51:02.269Z,39.23
2019-05-01T02:56:34.664Z,34.03
2019-05-01T03:01:46.264Z,37.00
2019-05-01T03:06:41.557Z,36.70
2019-05-01T03:11:46.049Z,39.17
2019-05-01T03:16:51.776Z,40.20
2019-05-01T03:22:03.338Z,35.80
2019-05-01T03:27:05.637Z,35.63
2019-05-01T03:32:19.041Z,35.63
2019-05-01T03:37:12.921Z,35.37
2019-05-01T03:42:15.978Z,37.67
2019-05-01T03:47:18.257Z,38.30
2019-05-01T03:52:20.863Z,36.50
2019-05-01T03:57:22.775Z,38.10
2019-05-01T04:02:45.254Z,37.40
2019-05-01T04:07:47.338Z,37.70
2019-05-01T04:12:49.321Z,39.57
2019-05-01T04:17:55.739Z,41.30
2019-05-01T04:22:57.877Z,38.13
2019-05-01T04:28:03.335Z,36.23
2019-05-01T04:33:08.650Z,33.40
2019-05-01T04:38:10.953Z,34.17
2019-05-01T04:43:12.845Z,36.37
2019-05-01T04:48:14.747Z,37.17
2019-05-01T04:53:17.697Z,35.77
2019-05-01T04:58:19.687Z,36.93
2019-05-01T05:03:23.572Z,40.13
2019-05-01T05:08:25.464Z,35.73
2019-05-01T05:13:32.391Z,43.10
2019-05-01T05:18:34.418Z,39.33
2019-05-01T05:23:36.778Z,41.03
2019-05-01T05:28:38.991Z,41.50
2019-05-01T05:33:43.606Z,41.87
2019-05-01T05:39:00.005Z,37.83
2019-05-01T05:44:07.142Z,39.40
2019-05-01T05:49:11.655Z,37.77
2019-05-01T05:54:37.019Z,37.67
2019-05-01T05:59:44.780Z,40.60
2019-05-01T06:05:16.204Z,39.43
2019-05-01T06:10:33.201Z,41.90
2019-05-01T06:16:03.330Z,35.60
2019-05-01T06:21:24.703Z,34.13
2019-05-01T06:26:32.260Z,31.07
2019-05-01T06:31:32.928Z,36.67
2019-05-01T06:36:35.070Z,39.13
2019-05-01T06:41:42.965Z,35.40
2019-05-01T06:47:08.150Z,35.43
2019-05-01T06:52:11.902Z,38.57
2019-05-01T06:57:14.101Z,37.17
2019-05-01T07:02:20.875Z,40.50
2019-05-01T07:07:25.538Z,40.17
2019-05-01T07:12:30.031Z,42.47
2019-05-01T07:17:32.632Z,37.20
2019-05-01T07:22:37.152Z,38.77
2019-05-01T07:27:40.594Z,34.83
2019-05-01T07:32:42.786Z,33.60
2019-05-01T07:37:45.015Z,43.50
2019-05-01T07:42:49.678Z,36.80
2019-05-01T07:47:52.119Z,33.40
2019-05-01T07:52:54.075Z,40.17
2019-05-01T07:57:57.194Z,33.73
2019-05-01T08:03:02.588Z,34.93
2019-05-01T08:08:07.422Z,39.07
2019-05-01T08:13:06.758Z,38.17
2019-05-01T08:18:36.188Z,34.77
2019-05-01T08:23:37.669Z,34.10
2019-05-01T08:29:03.057Z,41.57
2019-05-01T08:34:08.029Z,34.37
2019-05-01T08:39:13.920Z,38.27
2019-05-01T08:44:18.385Z,36.40
2019-05-01T08:49:52.919Z,39.90
2019-05-01T08:54:55.018Z,36.20
2019-05-01T09:00:00.275Z,35.97
2019-05-01T09:05:02.831Z,39.10
2019-05-01T09:10:08.935Z,33.70
2019-05-01T09:15:12.677Z,35.20
2019-05-01T09:20:16.673Z,39.83
2019-05-01T09:25:26.199Z,41.20
2019-05-01T09:30:34.231Z,41.43
2019-05-01T09:35:40.181Z,41.20
2019-05-01T09:40:40.177Z,43.43
2019-05-01T09:45:44.889Z,43.97
2019-05-01T09:50:52.815Z,38.13
2019-05-01T09:56:03.231Z,38.97
2019-05-01T10:01:07.339Z,40.83
2019-05-01T10:06:12.847Z,41.97
2019-05-01T10:11:14.974Z,43.47
2019-05-01T10:16:17.084Z,44.73
2019-05-01T10:21:22.403Z,47.77
2019-05-01T10:26:27.234Z,44.73
2019-05-01T10:31:47.749Z,47.73
2019-05-01T10:36:54.644Z,49.00
2019-05-01T10:41:54.527Z,48.77
2019-05-01T10:47:01.865Z,54.83
2019-05-01T10:52:13.606Z,54.33
2019-05-01T10:57:07.016Z,61.37
2019-05-01T11:02:11.097Z,56.17
2019-05-01T11:07:13.026Z,64.07
2019-05-01T11:12:14.828Z,59.00
2019-05-01T11:17:16.784Z,60.50
2019-05-01T11:22:22.685Z,65.53
2019-05-01T11:27:25.042Z,67.37
2019-05-01T11:32:35.677Z,66.90
2019-05-01T11:38:04.276Z,69.53
2019-05-01T11:43:10.060Z,69.37
2019-05-01T11:48:11.971Z,65.33
2019-05-01T11:53:16.074Z,65.27
2019-05-01T11:58:17.961Z,63.03
2019-05-01T12:03:19.880Z,56.90
2019-05-01T12:08:21.852Z,58.03
2019-05-01T12:13:24.785Z,66.73
2019-05-01T12:18:26.671Z,61.30
2019-05-01T12:23:28.539Z,55.43
2019-05-01T12:28:30.349Z,58.33
2019-05-01T12:33:37.567Z,61.97
2019-05-01T12:38:39.465Z,59.23
2019-05-01T12:43:41.469Z,55.90
2019-05-01T12:48:44.389Z,53.97
2019-05-01T12:54:03.906Z,47.60
2019-05-01T12:59:08.126Z,51.53
2019-05-01T13:04:09.995Z,44.97
2019-05-01T13:09:11.911Z,41.50
2019-05-01T13:14:13.886Z,42.23
2019-05-01T13:19:15.807Z,38.93
2019-05-01T13:24:17.919Z,38.33
2019-05-01T13:29:25.355Z,34.03
2019-05-01T13:34:27.400Z,35.80
2019-05-01T13:39:29.291Z,35.93
2019-05-01T13:44:33.820Z,37.90
2019-05-01T13:49:35.527Z,35.07
2019-05-01T13:54:37.465Z,36.03
2019-05-01T13:59:39.380Z,32.20
2019-05-01T14:04:44.231Z,34.77
2019-05-01T14:09:48.522Z,31.23
2019-05-01T14:14:50.410Z,32.23
2019-05-01T14:20:02.558Z,30.17
2019-05-01T14:25:05.809Z,27.90
2019-05-01T14:30:10.291Z,27.27
2019-05-01T14:35:12.441Z,26.33
2019-05-01T14:40:14.527Z,33.93
2019-05-01T14:45:16.419Z,26.30
2019-05-01T14:50:18.204Z,28.17
2019-05-01T14:55:20.123Z,29.87
2019-05-01T15:00:22.354Z,29.03
2019-05-01T15:05:25.811Z,32.57
2019-05-01T15:10:27.592Z,29.40
2019-05-01T15:15:49.036Z,30.37
2019-05-01T15:20:50.848Z,29.40
2019-05-01T15:25:53.086Z,29.20
2019-05-01T15:30:54.998Z,26.63
2019-05-01T15:35:57.008Z,28.47
2019-05-01T15:41:08.431Z,29.47
2019-05-01T15:46:10.418Z,30.73
2019-05-01T15:51:14.677Z,24.90
2019-05-01T15:56:16.520Z,22.13
2019-05-01T16:01:19.503Z,21.13
2019-05-01T16:06:21.523Z,29.90
2019-05-01T16:11:49.198Z,23.73
2019-05-01T16:16:51.578Z,21.23
2019-05-01T16:21:53.575Z,23.63
2019-05-01T16:26:55.307Z,22.70
2019-05-01T16:31:57.200Z,20.90
2019-05-01T16:36:59.214Z,22.37
2019-05-01T16:42:01.197Z,22.83
2019-05-01T16:47:03.210Z,21.60
2019-05-01T16:52:06.990Z,22.27
2019-05-01T16:57:11.853Z,22.30
2019-05-01T17:02:42.500Z,22.50
2019-05-01T17:07:56.290Z,18.10
2019-05-01T17:12:58.091Z,20.53
2019-05-01T17:18:00.179Z,20.63
2019-05-01T17:23:02.123Z,22.97
2019-05-01T17:28:08.231Z,22.13
2019-05-01T17:33:08.580Z,24.90
2019-05-01T17:38:10.361Z,24.20
2019-05-01T17:43:15.489Z,22.53
2019-05-01T17:48:17.594Z,22.53
2019-05-01T17:53:19.670Z,22.23
2019-05-01T17:58:21.555Z,21.60
2019-05-01T18:03:39.135Z,24.50
2019-05-01T18:08:41.032Z,21.33
2019-05-01T18:13:42.852Z,20.73
2019-05-01T18:18:44.740Z,22.10
2019-05-01T18:24:02.112Z,25.00
2019-05-01T18:29:17.577Z,22.27
2019-05-01T18:34:22.407Z,23.77
2019-05-01T18:39:43.946Z,20.53
2019-05-01T18:44:47.578Z,24.93
2019-05-01T18:49:50.176Z,25.10
2019-05-01T18:54:52.203Z,27.63
2019-05-01T18:59:54.157Z,25.67
2019-05-01T19:04:56.135Z,28.13
2019-05-01T19:10:00.067Z,26.70
2019-05-01T19:15:05.520Z,28.07
2019-05-01T19:20:06.064Z,29.80
2019-05-01T19:25:10.919Z,30.40
2019-05-01T19:30:14.910Z,27.77
2019-05-01T19:35:16.699Z,30.67
2019-05-01T19:40:18.546Z,29.83
2019-05-01T19:45:20.573Z,30.70
2019-05-01T19:50:24.673Z,29.90
2019-05-01T19:55:26.533Z,30.03
2019-05-01T20:00:53.573Z,34.47
2019-05-01T20:05:59.643Z,32.27
2019-05-01T20:10:59.405Z,33.83
2019-05-01T20:16:01.294Z,33.20
2019-05-01T20:21:04.955Z,29.33
2019-05-01T20:26:07.131Z,32.43
2019-05-01T20:31:09.081Z,28.47
2019-05-01T20:36:10.984Z,27.90
2019-05-01T20:41:15.804Z,32.13
2019-05-01T20:46:21.505Z,30.60
2019-05-01T20:51:24.391Z,26.57
2019-05-01T20:56:46.096Z,27.00
2019-05-01T21:01:48.040Z,30.63
2019-05-01T21:07:09.652Z,28.57
2019-05-01T21:12:11.506Z,30.37
2019-05-01T21:17:16.197Z,28.50
2019-05-01T21:22:18.107Z,30.73
2019-05-01T21:27:19.930Z,29.63
2019-05-01T21:32:26.149Z,28.57
2019-05-01T21:37:26.722Z,28.63
2019-05-01T21:42:28.803Z,28.10
2019-05-01T21:47:30.746Z,28.90
2019-05-01T21:52:33.254Z,32.60
2019-05-01T21:57:38.693Z,33.33
2019-05-01T22:02:41.511Z,36.50
2019-05-01T22:07:43.526Z,33.30
2019-05-01T22:12:49.006Z,31.33
2019-05-01T22:18:00.130Z,34.10
2019-05-01T22:23:06.245Z,35.07
2019-05-01T22:28:13.968Z,36.97
2019-05-01T22:33:17.982Z,41.20
2019-05-01T22:38:19.981Z,39.03
2019-05-01T22:43:22.180Z,38.20
2019-05-01T22:48:27.131Z,43.00
2019-05-01T22:53:29.072Z,38.93
2019-05-01T22:58:33.694Z,42.10
2019-05-01T23:03:42.445Z,41.83
2019-05-01T23:08:44.669Z,45.03
2019-05-01T23:13:46.588Z,38.93
2019-05-01T23:18:51.914Z,43.67
2019-05-01T23:23:56.922Z,45.10
2019-05-01T23:28:58.827Z,43.47
2019-05-01T23:34:00.890Z,41.77
2019-05-01T23:39:04.630Z,47.83
2019-05-01T23:44:06.704Z,50.73
2019-05-01T23:49:08.696Z,45.67
2019-05-01T23:54:10.655Z,45.40
2019-05-01T23:59:12.442Z,52.63
